Time;durP1;ratioP1;P1;durP2;ratioP2;P2;SDS_P1;SDS_P2;PMS_P1;PMS_P2;Temp;Humidity;BMP_temperature;BMP_pressure;BME280_temperature;BME280_humidity;BME280_pressure;Samples;Min_cycle;Max_cycle;Signal;HPM_P1;HPM_P2
2022/08/19 00:00:31;;;;;;;9.30;4.28;;;;;;;;;;5111239;28;20456;-72
2022/08/19 00:02:57;;;;;;;11.50;4.80;;;;;;;;;;5110642;28;20103;-72
2022/08/19 00:05:23;;;;;;;9.93;4.90;;;;;;;;;;5110875;28;20510;-71
2022/08/19 00:07:50;;;;;;;10.80;5.15;;;;;;;;;;5110814;28;20535;-71
2022/08/19 00:10:18;;;;;;;9.48;4.90;;;;;;;;;;5110430;28;20414;-71
2022/08/19 00:14:07;;;;;;;8.40;4.65;;;;;;;;;;5111526;27;20418;-70
2022/08/19 00:20:07;;;;;;;16.27;7.43;;;;;;;;;;5111534;27;20981;-70
2022/08/19 00:22:34;;;;;;;17.27;10.15;;;;;;;;;;5111339;28;20032;-70
2022/08/19 00:26:26;;;;;;;20.27;8.63;;;;;;;;;;5111560;27;20458;-70
2022/08/19 00:28:52;;;;;;;17.10;9.32;;;;;;;;;;5111463;28;20385;-70
2022/08/19 00:31:18;;;;;;;19.58;8.15;;;;;;;;;;5109675;28;20384;-70
2022/08/19 00:35:33;;;;;;;19.08;7.45;;;;;;;;;;5111493;27;20427;-70
2022/08/19 00:37:59;;;;;;;14.80;8.05;;;;;;;;;;5110996;28;20430;-71
2022/08/19 00:40:26;;;;;;;12.07;6.50;;;;;;;;;;5111250;28;20077;-70
2022/08/19 00:42:55;;;;;;;9.73;5.55;;;;;;;;;;5111257;28;20027;-70
2022/08/19 00:45:23;;;;;;;8.50;3.92;;;;;;;;;;5110843;28;20023;-70
2022/08/19 00:47:49;;;;;;;9.98;5.22;;;;;;;;;;5109922;28;20391;-70
2022/08/19 00:51:05;;;;;;;9.43;5.05;;;;;;;;;;5111736;27;20419;-70
2022/08/19 00:53:33;;;;;;;11.95;5.43;;;;;;;;;;5111364;28;20102;-70
2022/08/19 00:56:01;;;;;;;11.70;5.53;;;;;;;;;;5110047;28;20031;-70
2022/08/19 00:58:29;;;;;;;15.95;6.13;;;;;;;;;;5110863;28;20383;-70
2022/08/19 01:00:55;;;;;;;13.23;6.78;;;;;;;;;;5111450;28;20020;-70
2022/08/19 01:03:23;;;;;;;10.30;5.72;;;;;;;;;;5111007;28;20057;-70
2022/08/19 01:05:50;;;;;;;12.93;4.28;;;;;;;;;;5110541;28;20423;-70
2022/08/19 01:08:17;;;;;;;8.93;3.60;;;;;;;;;;5111159;28;20027;-70
2022/08/19 01:10:49;;;;;;;5.65;3.30;;;;;;;;;;5109751;28;20066;-70
2022/08/19 01:15:10;;;;;;;7.30;4.05;;;;;;;;;;5111833;27;20418;-71
2022/08/19 01:17:38;;;;;;;7.90;4.18;;;;;;;;;;5110056;28;20051;-70
2022/08/19 01:20:05;;;;;;;10.13;4.70;;;;;;;;;;5110928;28;20031;-71
2022/08/19 01:22:51;;;;;;;11.90;5.97;;;;;;;;;;5111571;28;20024;-71
2022/08/19 01:25:19;;;;;;;13.60;6.40;;;;;;;;;;5111322;28;20051;-70
2022/08/19 01:27:50;;;;;;;11.63;6.22;;;;;;;;;;5110909;28;20537;-71
2022/08/19 01:30:55;;;;;;;12.75;5.65;;;;;;;;;;5112077;27;20384;-70
2022/08/19 01:33:22;;;;;;;11.90;5.45;;;;;;;;;;5111500;28;20024;-70
2022/08/19 01:35:52;;;;;;;11.48;5.60;;;;;;;;;;5111306;28;20028;-71
2022/08/19 01:38:25;;;;;;;9.73;5.82;;;;;;;;;;5111377;28;20076;-71
2022/08/19 01:48:03;;;;;;;11.65;5.20;;;;;;;;;;5111164;27;20438;-70
2022/08/19 01:53:59;;;;;;;9.10;4.43;;;;;;;;;;5110929;27;20426;-69
2022/08/19 01:56:26;;;;;;;6.72;3.72;;;;;;;;;;5111480;28;20472;-71
2022/08/19 01:58:56;;;;;;;8.05;3.83;;;;;;;;;;5111332;28;20052;-70
2022/08/19 02:01:22;;;;;;;9.23;3.65;;;;;;;;;;5111182;28;20089;-70
2022/08/19 02:03:48;;;;;;;9.32;3.90;;;;;;;;;;5111336;28;20024;-71
2022/08/19 02:07:53;;;;;;;7.38;3.88;;;;;;;;;;5111817;27;20558;-70
2022/08/19 02:12:29;;;;;;;6.22;3.95;;;;;;;;;;5112360;27;20422;-70
2022/08/19 02:16:07;;;;;;;7.47;3.85;;;;;;;;;;5111472;27;20393;-70
2022/08/19 02:20:27;;;;;;;8.38;4.00;;;;;;;;;;5111884;27;20396;-70
2022/08/19 02:22:53;;;;;;;7.43;4.05;;;;;;;;;;5112011;28;20409;-69
2022/08/19 02:25:19;;;;;;;7.10;3.70;;;;;;;;;;5111729;28;20026;-71
2022/08/19 02:28:15;;;;;;;7.35;4.15;;;;;;;;;;5111987;27;20384;-71
2022/08/19 02:30:42;;;;;;;7.47;3.75;;;;;;;;;;5111090;28;20031;-70
2022/08/19 02:33:08;;;;;;;7.28;3.83;;;;;;;;;;5111312;28;20051;-70
2022/08/19 02:36:32;;;;;;;4.88;3.20;;;;;;;;;;5152623;27;20675;-70
2022/08/19 02:38:58;;;;;;;6.40;3.35;;;;;;;;;;5131775;28;20540;-72
2022/08/19 02:42:20;;;;;;;6.13;3.45;;;;;;;;;;5112096;27;20446;-70
2022/08/19 02:44:46;;;;;;;7.20;4.15;;;;;;;;;;5109654;28;20114;-70
2022/08/19 02:49:00;;;;;;;7.38;3.83;;;;;;;;;;5111568;27;20415;-70
2022/08/19 02:51:28;;;;;;;6.57;3.88;;;;;;;;;;5109772;28;20126;-70
2022/08/19 02:53:54;;;;;;;9.43;3.90;;;;;;;;;;5111307;28;20024;-70
2022/08/19 02:56:21;;;;;;;6.82;4.30;;;;;;;;;;5111322;28;20103;-72
2022/08/19 02:59:01;;;;;;;7.13;4.05;;;;;;;;;;5111221;27;20415;-70
2022/08/19 03:01:29;;;;;;;7.60;4.55;;;;;;;;;;5111383;28;20097;-71
2022/08/19 03:03:55;;;;;;;7.38;4.05;;;;;;;;;;5111322;28;20442;-70
2022/08/19 03:06:22;;;;;;;8.52;4.70;;;;;;;;;;5111136;28;20096;-70
2022/08/19 03:09:27;;;;;;;8.68;4.45;;;;;;;;;;5112275;27;20438;-70
2022/08/19 03:11:53;;;;;;;7.32;4.32;;;;;;;;;;5111100;28;20031;-71
2022/08/19 03:14:43;;;;;;;9.55;4.15;;;;;;;;;;5111646;27;20438;-70
2022/08/19 03:18:09;;;;;;;7.72;3.95;;;;;;;;;;5111398;27;20761;-70
2022/08/19 03:20:40;;;;;;;6.55;3.50;;;;;;;;;;5110981;28;20061;-70
2022/08/19 03:23:06;;;;;;;7.68;3.83;;;;;;;;;;5111649;28;20020;-70
2022/08/19 03:25:37;;;;;;;17.63;6.55;;;;;;;;;;5110882;28;20368;-70
2022/08/19 03:28:49;;;;;;;15.18;7.47;;;;;;;;;;5111826;27;20385;-70
2022/08/19 03:31:16;;;;;;;15.60;7.30;;;;;;;;;;5111577;28;20035;-70
2022/08/19 03:33:43;;;;;;;12.02;6.18;;;;;;;;;;5110997;28;20050;-70
2022/08/19 03:36:10;;;;;;;10.35;4.63;;;;;;;;;;5111231;28;20023;-70
2022/08/19 03:38:38;;;;;;;8.68;4.20;;;;;;;;;;5109865;28;20016;-70
2022/08/19 03:41:06;;;;;;;7.93;3.88;;;;;;;;;;5110846;28;20067;-70
2022/08/19 03:43:33;;;;;;;8.13;3.88;;;;;;;;;;5111296;28;20074;-70
2022/08/19 03:46:00;;;;;;;6.85;3.70;;;;;;;;;;5111381;28;20402;-70
2022/08/19 03:48:27;;;;;;;5.70;3.47;;;;;;;;;;5110508;28;20058;-70
2022/08/19 03:51:30;;;;;;;9.25;4.10;;;;;;;;;;5112203;27;20385;-71
2022/08/19 03:53:57;;;;;;;9.10;5.05;;;;;;;;;;5126837;28;20028;-71
2022/08/19 03:58:38;;;;;;;14.27;7.03;;;;;;;;;;5091584;27;20398;-70
2022/08/19 04:01:07;;;;;;;14.00;6.95;;;;;;;;;;5090833;28;20028;-71
2022/08/19 04:06:54;;;;;;;9.20;5.30;;;;;;;;;;5112066;27;20469;-70
2022/08/19 04:09:21;;;;;;;9.82;5.20;;;;;;;;;;5110992;28;20169;-72
2022/08/19 04:11:49;;;;;;;11.43;5.45;;;;;;;;;;5111362;28;20035;-70
2022/08/19 04:16:18;;;;;;;11.13;5.72;;;;;;;;;;5111179;27;20418;-71
2022/08/19 04:18:44;;;;;;;14.43;6.72;;;;;;;;;;5111888;28;20039;-70
2022/08/19 04:21:16;;;;;;;10.65;5.50;;;;;;;;;;5111308;28;20019;-70
2022/08/19 04:25:35;;;;;;;14.50;7.32;;;;;;;;;;5112085;27;20396;-70
2022/08/19 04:29:48;;;;;;;14.48;6.53;;;;;;;;;;5111240;27;20496;-70
2022/08/19 04:32:31;;;;;;;9.85;4.70;;;;;;;;;;5111753;27;20381;-70
2022/08/19 04:34:58;;;;;;;9.80;5.10;;;;;;;;;;5111685;28;20032;-70
2022/08/19 04:38:43;;;;;;;10.05;4.60;;;;;;;;;;5111600;27;20426;-70
2022/08/19 04:43:53;;;;;;;10.40;5.30;;;;;;;;;;5111102;28;20126;-71
2022/08/19 04:46:20;;;;;;;12.55;6.60;;;;;;;;;;5111277;28;20424;-71
2022/08/19 04:48:46;;;;;;;10.75;5.78;;;;;;;;;;5111488;28;20097;-71
2022/08/19 04:51:13;;;;;;;11.55;5.88;;;;;;;;;;5110887;28;20103;-70
2022/08/19 04:55:26;;;;;;;9.82;5.50;;;;;;;;;;5111922;27;20426;-71
2022/08/19 04:57:52;;;;;;;10.63;5.57;;;;;;;;;;5110946;28;20074;-71
2022/08/19 05:00:18;;;;;;;9.85;5.28;;;;;;;;;;5111282;28;20027;-71
2022/08/19 05:03:26;;;;;;;7.82;4.38;;;;;;;;;;5111410;27;20392;-71
2022/08/19 05:05:53;;;;;;;7.07;4.30;;;;;;;;;;5111003;28;20035;-71
2022/08/19 05:08:21;;;;;;;8.10;4.05;;;;;;;;;;5111259;28;20020;-70
2022/08/19 05:10:48;;;;;;;6.80;4.25;;;;;;;;;;5111257;28;20027;-71
2022/08/19 05:13:16;;;;;;;7.63;4.30;;;;;;;;;;5110815;28;20031;-70
2022/08/19 05:17:23;;;;;;;7.75;4.60;;;;;;;;;;5111724;27;20442;-70
2022/08/19 05:22:37;;;;;;;6.10;4.00;;;;;;;;;;5111631;28;20130;-71
2022/08/19 05:25:07;;;;;;;9.32;4.10;;;;;;;;;;5110895;28;20019;-70
2022/08/19 05:28:30;;;;;;;8.32;3.65;;;;;;;;;;5068379;28;20453;-75
2022/08/19 05:30:56;;;;;;;7.68;4.50;;;;;;;;;;5070429;28;20033;-75
2022/08/19 05:34:27;;;;;;;7.57;4.05;;;;;;;;;;5070381;28;20421;-74
2022/08/19 05:36:57;;;;;;;8.18;4.13;;;;;;;;;;5070559;28;20492;-74
2022/08/19 05:39:24;;;;;;;8.50;3.58;;;;;;;;;;5068892;28;20032;-74
2022/08/19 05:41:56;;;;;;;4.70;2.92;;;;;;;;;;5069921;28;20047;-76
2022/08/19 05:44:23;;;;;;;8.35;4.07;;;;;;;;;;5070355;28;20029;-73
2022/08/19 05:46:59;;;;;;;13.45;4.57;;;;;;;;;;5091558;27;20500;-73
2022/08/19 05:49:26;;;;;;;8.88;3.97;;;;;;;;;;5090770;28;20477;-72
2022/08/19 05:51:54;;;;;;;9.90;4.18;;;;;;;;;;5090677;28;20571;-73
2022/08/19 05:56:15;;;;;;;8.07;4.22;;;;;;;;;;5111121;27;20424;-73
2022/08/19 05:58:44;;;;;;;7.97;3.80;;;;;;;;;;5111109;28;20028;-77
2022/08/19 06:01:11;;;;;;;6.75;3.72;;;;;;;;;;5104252;28;20020;-72
2022/08/19 06:03:39;;;;;;;4.97;3.35;;;;;;;;;;5093687;28;20465;-72
2022/08/19 06:06:07;;;;;;;8.55;3.75;;;;;;;;;;5089789;28;20111;-73
2022/08/19 06:10:11;;;;;;;7.43;3.17;;;;;;;;;;5111906;27;20791;-73
2022/08/19 06:13:33;;;;;;;5.57;2.85;;;;;;;;;;5111213;27;20424;-76
2022/08/19 06:16:00;;;;;;;5.95;3.50;;;;;;;;;;5103028;28;20426;-75
2022/08/19 06:18:27;;;;;;;6.35;3.40;;;;;;;;;;5100560;28;20140;-76
2022/08/19 06:22:28;;;;;;;10.07;4.03;;;;;;;;;;5110561;27;20384;-74
2022/08/19 06:24:55;;;;;;;6.47;3.90;;;;;;;;;;5110920;28;20059;-78
2022/08/19 06:27:21;;;;;;;7.55;3.22;;;;;;;;;;5111403;28;20027;-77
2022/08/19 06:29:48;;;;;;;7.40;3.38;;;;;;;;;;5106883;28;20024;-73
2022/08/19 06:32:16;;;;;;;6.35;3.00;;;;;;;;;;5108485;28;20032;-72
2022/08/19 06:34:42;;;;;;;8.35;3.63;;;;;;;;;;5110178;28;20031;-72
2022/08/19 06:37:08;;;;;;;5.25;3.45;;;;;;;;;;5110302;28;20107;-74
2022/08/19 06:39:38;;;;;;;6.13;3.55;;;;;;;;;;5110806;28;20403;-74
2022/08/19 06:42:06;;;;;;;6.63;3.90;;;;;;;;;;5110710;28;20032;-72
2022/08/19 06:44:34;;;;;;;6.97;3.90;;;;;;;;;;5110139;28;20036;-75
2022/08/19 06:47:02;;;;;;;6.35;3.67;;;;;;;;;;5110658;28;20365;-71
2022/08/19 06:49:30;;;;;;;6.22;3.53;;;;;;;;;;5107967;28;20513;-72
2022/08/19 06:51:58;;;;;;;6.18;3.75;;;;;;;;;;5107180;28;20024;-71
2022/08/19 06:54:25;;;;;;;6.88;3.85;;;;;;;;;;5107891;28;20024;-70
2022/08/19 06:56:51;;;;;;;10.68;3.60;;;;;;;;;;5106519;28;20031;-70
2022/08/19 06:59:19;;;;;;;7.70;3.63;;;;;;;;;;5108257;28;20030;-71
2022/08/19 07:01:47;;;;;;;6.60;4.18;;;;;;;;;;5108484;28;20043;-71
2022/08/19 07:04:15;;;;;;;7.32;4.13;;;;;;;;;;5108987;28;20102;-72
2022/08/19 07:06:42;;;;;;;8.38;4.03;;;;;;;;;;5109743;28;20032;-72
2022/08/19 07:09:09;;;;;;;5.63;3.30;;;;;;;;;;5110282;28;20035;-71
2022/08/19 07:11:35;;;;;;;5.15;3.30;;;;;;;;;;5109207;28;20472;-73
2022/08/19 07:14:01;;;;;;;6.93;3.85;;;;;;;;;;5110423;28;20027;-73
2022/08/19 07:16:28;;;;;;;6.53;4.10;;;;;;;;;;5108943;28;20038;-73
2022/08/19 07:18:55;;;;;;;7.13;4.25;;;;;;;;;;5109608;28;20034;-72
2022/08/19 07:21:24;;;;;;;5.18;3.33;;;;;;;;;;5107119;28;20104;-72
2022/08/19 07:23:51;;;;;;;7.10;3.83;;;;;;;;;;5096364;28;20384;-71
2022/08/19 07:26:24;;;;;;;6.85;4.20;;;;;;;;;;5089547;28;20024;-72
2022/08/19 07:31:58;;;;;;;8.55;3.55;;;;;;;;;;5111931;27;20389;-71
2022/08/19 07:34:25;;;;;;;6.60;3.80;;;;;;;;;;5111062;28;20036;-72
2022/08/19 07:38:54;;;;;;;5.80;3.53;;;;;;;;;;5110930;27;20426;-71
2022/08/19 07:41:22;;;;;;;9.40;3.80;;;;;;;;;;5109475;28;20055;-71
2022/08/19 07:43:50;;;;;;;6.57;3.33;;;;;;;;;;5105355;28;20469;-71
2022/08/19 07:46:16;;;;;;;6.40;3.40;;;;;;;;;;5099345;28;20028;-71
2022/08/19 07:48:45;;;;;;;7.07;3.92;;;;;;;;;;5109709;28;20105;-73
2022/08/19 07:51:11;;;;;;;10.15;4.03;;;;;;;;;;5110517;28;20020;-72
2022/08/19 07:53:38;;;;;;;7.32;3.83;;;;;;;;;;5110374;28;20051;-73
2022/08/19 07:56:04;;;;;;;7.40;3.45;;;;;;;;;;5105537;28;20051;-72
2022/08/19 07:58:32;;;;;;;7.28;3.20;;;;;;;;;;5090663;28;20036;-73
2022/08/19 08:00:58;;;;;;;6.88;3.30;;;;;;;;;;5100392;28;20059;-72
2022/08/19 08:09:10;;;;;;;4.95;2.70;;;;;;;;;;5097976;28;20016;-72
2022/08/19 08:11:54;;;;;;;5.22;2.90;;;;;;;;;;5097662;28;20039;-76
2022/08/19 08:14:22;;;;;;;6.28;3.00;;;;;;;;;;5108074;28;20023;-72
2022/08/19 08:16:50;;;;;;;5.57;2.63;;;;;;;;;;5108221;28;20082;-75
2022/08/19 08:19:18;;;;;;;4.63;2.75;;;;;;;;;;5107192;28;20052;-78
2022/08/19 08:21:44;;;;;;;6.45;3.15;;;;;;;;;;5106253;28;20103;-76
2022/08/19 08:24:12;;;;;;;6.20;3.65;;;;;;;;;;5107220;28;20039;-75
2022/08/19 08:26:38;;;;;;;6.22;3.03;;;;;;;;;;5104800;28;20016;-74
2022/08/19 08:29:05;;;;;;;5.63;3.20;;;;;;;;;;5101386;28;20426;-76
2022/08/19 08:31:32;;;;;;;5.93;3.40;;;;;;;;;;5096170;28;20073;-77
2022/08/19 08:33:58;;;;;;;6.20;2.92;;;;;;;;;;5101957;28;20023;-75
2022/08/19 08:36:25;;;;;;;6.30;3.53;;;;;;;;;;5100201;28;20027;-77
2022/08/19 08:38:52;;;;;;;8.55;3.22;;;;;;;;;;5103126;28;20039;-75
2022/08/19 08:41:21;;;;;;;5.25;3.50;;;;;;;;;;5109870;28;20097;-75
2022/08/19 08:43:50;;;;;;;6.68;3.38;;;;;;;;;;5109163;28;20444;-77
2022/08/19 08:46:20;;;;;;;5.93;3.60;;;;;;;;;;5108271;28;20026;-74
2022/08/19 08:48:49;;;;;;;8.48;3.97;;;;;;;;;;5104056;28;20016;-77
2022/08/19 08:51:35;;;;;;;5.85;3.97;;;;;;;;;;5095819;28;20095;-79
2022/08/19 08:54:06;;;;;;;5.80;3.10;;;;;;;;;;5096251;28;20024;-79
2022/08/19 08:56:32;;;;;;;8.15;3.20;;;;;;;;;;5095408;28;20048;-73
2022/08/19 08:59:02;;;;;;;5.10;3.03;;;;;;;;;;5096217;28;20032;-77
2022/08/19 09:01:28;;;;;;;5.68;2.80;;;;;;;;;;5095691;28;20020;-72
2022/08/19 09:03:54;;;;;;;7.30;3.95;;;;;;;;;;5093400;28;20082;-71
2022/08/19 09:06:32;;;;;;;5.38;3.25;;;;;;;;;;5095436;28;20024;-72
2022/08/19 09:09:17;;;;;;;6.13;3.50;;;;;;;;;;5088655;28;20032;-73
2022/08/19 09:11:46;;;;;;;7.88;3.22;;;;;;;;;;5075838;28;20530;-72
2022/08/19 09:14:19;;;;;;;5.72;3.47;;;;;;;;;;5093055;28;20028;-73
2022/08/19 09:16:45;;;;;;;5.75;3.10;;;;;;;;;;5089897;28;20035;-75
2022/08/19 09:19:11;;;;;;;8.25;3.58;;;;;;;;;;5078553;28;20063;-74
2022/08/19 09:21:38;;;;;;;6.50;3.47;;;;;;;;;;5088927;28;20046;-73
2022/08/19 09:24:05;;;;;;;6.72;3.30;;;;;;;;;;5093172;28;20107;-72
2022/08/19 09:26:32;;;;;;;5.82;3.20;;;;;;;;;;5093405;28;20034;-73
2022/08/19 09:28:59;;;;;;;7.30;3.40;;;;;;;;;;5086396;28;20040;-72
2022/08/19 09:31:26;;;;;;;5.47;3.47;;;;;;;;;;5086437;28;20050;-72
2022/08/19 09:33:56;;;;;;;6.68;3.17;;;;;;;;;;5090072;28;20032;-72
2022/08/19 09:36:24;;;;;;;4.63;3.28;;;;;;;;;;5087968;28;20053;-74
2022/08/19 09:38:51;;;;;;;6.65;3.78;;;;;;;;;;5082971;28;20044;-72
2022/08/19 09:41:21;;;;;;;7.43;3.78;;;;;;;;;;5073205;28;20392;-71
2022/08/19 09:43:51;;;;;;;6.88;3.05;;;;;;;;;;5072860;28;20071;-73
2022/08/19 09:46:17;;;;;;;6.05;3.22;;;;;;;;;;5071310;28;20033;-72
2022/08/19 09:48:48;;;;;;;6.72;3.53;;;;;;;;;;5072816;28;20024;-71
2022/08/19 09:51:15;;;;;;;5.15;3.00;;;;;;;;;;5073012;28;20070;-71
2022/08/19 09:53:42;;;;;;;5.45;2.95;;;;;;;;;;5074032;28;20377;-74
2022/08/19 09:56:08;;;;;;;5.57;3.60;;;;;;;;;;5072992;28;20025;-74
2022/08/19 09:58:35;;;;;;;5.32;3.50;;;;;;;;;;5072590;28;20033;-74
2022/08/19 10:01:02;;;;;;;5.15;3.08;;;;;;;;;;5084482;28;20024;-73
2022/08/19 10:03:29;;;;;;;4.72;2.88;;;;;;;;;;5086892;28;20078;-74
2022/08/19 10:05:56;;;;;;;5.55;3.22;;;;;;;;;;5086168;28;20036;-74
2022/08/19 10:08:25;;;;;;;4.78;2.80;;;;;;;;;;5090610;28;20180;-75
2022/08/19 10:10:52;;;;;;;5.85;3.22;;;;;;;;;;5086007;28;20054;-73
2022/08/19 10:13:24;;;;;;;4.60;2.95;;;;;;;;;;5081726;28;20032;-73
2022/08/19 10:15:51;;;;;;;5.43;2.95;;;;;;;;;;5074286;28;20016;-73
2022/08/19 10:18:18;;;;;;;5.22;2.58;;;;;;;;;;5072758;28;20109;-75
2022/08/19 10:20:45;;;;;;;6.18;2.95;;;;;;;;;;5074339;28;20056;-74
2022/08/19 10:23:11;;;;;;;4.18;2.63;;;;;;;;;;5087866;28;20081;-74
2022/08/19 10:25:38;;;;;;;14.75;12.43;;;;;;;;;;5091421;28;20091;-74
2022/08/19 10:28:05;;;;;;;7.93;4.72;;;;;;;;;;5091135;28;20089;-73
2022/08/19 10:30:32;;;;;;;5.82;3.35;;;;;;;;;;5092441;28;20020;-73
2022/08/19 10:32:59;;;;;;;4.35;2.63;;;;;;;;;;5091389;28;20035;-72
2022/08/19 10:35:29;;;;;;;4.25;2.55;;;;;;;;;;5090343;28;20024;-73
2022/08/19 10:37:58;;;;;;;4.22;2.47;;;;;;;;;;5091679;28;20040;-72
2022/08/19 10:40:25;;;;;;;7.80;2.83;;;;;;;;;;5091454;28;20112;-73
2022/08/19 10:42:52;;;;;;;4.25;2.47;;;;;;;;;;5090698;28;20020;-72
2022/08/19 10:45:18;;;;;;;5.07;2.45;;;;;;;;;;5090294;28;20035;-72
2022/08/19 10:47:44;;;;;;;7.00;2.65;;;;;;;;;;5090510;28;20059;-73
2022/08/19 10:52:55;;;;;;;6.82;2.55;;;;;;;;;;5091495;28;20395;-72
2022/08/19 10:58:13;;;;;;;3.70;2.38;;;;;;;;;;5093085;28;20479;-73
2022/08/19 11:00:40;;;;;;;3.83;2.30;;;;;;;;;;5093885;28;20024;-73
2022/08/19 11:03:06;;;;;;;4.60;2.60;;;;;;;;;;5093645;28;20024;-73
2022/08/19 11:05:32;;;;;;;5.85;3.20;;;;;;;;;;5094272;28;20031;-73
2022/08/19 11:07:58;;;;;;;5.43;2.53;;;;;;;;;;5093754;28;20538;-72
2022/08/19 11:10:24;;;;;;;4.30;2.58;;;;;;;;;;5093283;28;20027;-72
2022/08/19 11:12:54;;;;;;;4.28;2.30;;;;;;;;;;5093459;28;20041;-73
2022/08/19 11:15:20;;;;;;;5.82;2.40;;;;;;;;;;5093838;28;20069;-73
2022/08/19 11:17:46;;;;;;;4.32;2.45;;;;;;;;;;5093124;28;20032;-72
2022/08/19 11:20:13;;;;;;;5.03;2.75;;;;;;;;;;5094012;28;20047;-73
2022/08/19 11:22:40;;;;;;;6.00;2.90;;;;;;;;;;5093549;28;20051;-72
2022/08/19 11:25:06;;;;;;;3.60;2.40;;;;;;;;;;5093110;28;20027;-72
2022/08/19 11:27:33;;;;;;;4.20;2.70;;;;;;;;;;5092232;28;20028;-72
2022/08/19 11:30:00;;;;;;;4.55;2.63;;;;;;;;;;5093435;28;20016;-72
2022/08/19 11:32:27;;;;;;;7.22;2.45;;;;;;;;;;5093400;28;20073;-72
2022/08/19 11:34:54;;;;;;;4.75;2.65;;;;;;;;;;5092159;28;20453;-72
2022/08/19 11:37:20;;;;;;;5.55;2.40;;;;;;;;;;5091881;28;20044;-74
2022/08/19 11:39:46;;;;;;;4.60;2.25;;;;;;;;;;5092973;28;20028;-72
2022/08/19 11:44:57;;;;;;;3.85;1.90;;;;;;;;;;5092989;28;20392;-73
2022/08/19 11:47:23;;;;;;;4.90;2.13;;;;;;;;;;5093600;28;20032;-73
2022/08/19 11:49:50;;;;;;;5.88;2.72;;;;;;;;;;5093313;28;20020;-73
2022/08/19 11:52:16;;;;;;;9.75;3.20;;;;;;;;;;5091727;28;20020;-72
2022/08/19 11:54:42;;;;;;;5.10;2.50;;;;;;;;;;5093270;28;20069;-73
2022/08/19 11:57:08;;;;;;;5.07;2.35;;;;;;;;;;5093122;28;20040;-72
2022/08/19 11:59:34;;;;;;;4.15;1.90;;;;;;;;;;5092801;28;20024;-72
2022/08/19 12:02:00;;;;;;;3.75;2.03;;;;;;;;;;5093211;28;20444;-72
2022/08/19 12:04:26;;;;;;;4.82;2.15;;;;;;;;;;5093225;28;20095;-72
2022/08/19 12:06:52;;;;;;;5.28;2.20;;;;;;;;;;5091815;28;20115;-72
2022/08/19 12:09:19;;;;;;;3.08;2.00;;;;;;;;;;5092144;28;20024;-73
2022/08/19 12:11:45;;;;;;;4.07;2.00;;;;;;;;;;5093344;28;20095;-73
2022/08/19 12:14:13;;;;;;;4.88;2.28;;;;;;;;;;5093621;28;20057;-73
2022/08/19 12:16:41;;;;;;;5.00;2.13;;;;;;;;;;5092332;28;20357;-73
2022/08/19 12:19:07;;;;;;;5.93;2.38;;;;;;;;;;5092124;28;20020;-73
2022/08/19 12:21:34;;;;;;;3.75;2.05;;;;;;;;;;5092961;28;20028;-73
2022/08/19 12:24:03;;;;;;;5.03;2.22;;;;;;;;;;5094445;28;20016;-73
2022/08/19 12:26:31;;;;;;;4.55;2.30;;;;;;;;;;5097453;28;20019;-73
2022/08/19 12:28:59;;;;;;;4.45;1.90;;;;;;;;;;5095429;28;20024;-73
2022/08/19 12:31:25;;;;;;;5.25;1.98;;;;;;;;;;5097025;28;20121;-73
2022/08/19 12:33:52;;;;;;;3.58;2.10;;;;;;;;;;5097329;28;20095;-73
2022/08/19 12:36:18;;;;;;;6.13;2.60;;;;;;;;;;5097050;28;20031;-74
2022/08/19 12:38:45;;;;;;;3.72;2.03;;;;;;;;;;5096937;28;20492;-73
2022/08/19 12:41:12;;;;;;;3.33;1.92;;;;;;;;;;5098699;28;20024;-73
2022/08/19 12:43:38;;;;;;;3.67;2.10;;;;;;;;;;5099404;28;20048;-73
2022/08/19 12:46:05;;;;;;;3.92;1.88;;;;;;;;;;5098408;28;20012;-73
2022/08/19 12:48:35;;;;;;;3.92;2.00;;;;;;;;;;5096764;28;20024;-73
2022/08/19 12:51:06;;;;;;;3.83;2.10;;;;;;;;;;5096776;28;20330;-73
2022/08/19 12:53:32;;;;;;;4.00;2.17;;;;;;;;;;5096675;28;20028;-73
2022/08/19 12:55:59;;;;;;;4.93;2.20;;;;;;;;;;5095923;28;20020;-73
2022/08/19 12:58:26;;;;;;;4.45;2.03;;;;;;;;;;5096342;28;20551;-73
2022/08/19 13:00:52;;;;;;;3.47;1.88;;;;;;;;;;5096175;28;20036;-73
2022/08/19 13:03:18;;;;;;;5.50;2.20;;;;;;;;;;5095734;28;20039;-73
2022/08/19 13:05:44;;;;;;;4.88;2.60;;;;;;;;;;5096094;28;20016;-73
2022/08/19 13:08:11;;;;;;;4.78;2.10;;;;;;;;;;5096367;28;20023;-73
2022/08/19 13:10:38;;;;;;;4.95;2.22;;;;;;;;;;5095664;28;20012;-73
2022/08/19 13:13:09;;;;;;;4.55;2.50;;;;;;;;;;5095975;28;20020;-72
2022/08/19 13:15:36;;;;;;;5.13;2.10;;;;;;;;;;5096121;28;20091;-72
2022/08/19 13:18:02;;;;;;;3.55;2.10;;;;;;;;;;5095385;28;20043;-73
2022/08/19 13:20:29;;;;;;;4.35;2.20;;;;;;;;;;5096102;28;20028;-73
2022/08/19 13:22:56;;;;;;;5.38;2.05;;;;;;;;;;5095811;28;20027;-73
2022/08/19 13:25:23;;;;;;;4.63;2.47;;;;;;;;;;5095624;28;20407;-72
2022/08/19 13:27:50;;;;;;;6.68;2.30;;;;;;;;;;5095758;28;20028;-73
2022/08/19 13:33:11;;;;;;;5.18;2.30;;;;;;;;;;5095738;28;20442;-73
2022/08/19 13:35:40;;;;;;;5.75;2.53;;;;;;;;;;5095727;28;20024;-73
2022/08/19 13:38:06;;;;;;;3.50;2.30;;;;;;;;;;5094864;28;20051;-73
2022/08/19 13:40:33;;;;;;;6.28;2.13;;;;;;;;;;5095410;28;20028;-73
2022/08/19 13:43:00;;;;;;;4.53;2.20;;;;;;;;;;5095404;28;20480;-72
2022/08/19 13:45:27;;;;;;;3.53;1.85;;;;;;;;;;5095114;28;20099;-72
2022/08/19 13:47:54;;;;;;;2.88;1.90;;;;;;;;;;5095382;28;20028;-73
2022/08/19 13:50:25;;;;;;;3.70;1.90;;;;;;;;;;5095803;28;20024;-73
2022/08/19 13:52:51;;;;;;;2.78;2.00;;;;;;;;;;5094836;28;20165;-72
2022/08/19 13:55:17;;;;;;;4.22;2.35;;;;;;;;;;5095304;28;20024;-73
2022/08/19 13:57:44;;;;;;;4.80;2.20;;;;;;;;;;5095092;28;20036;-73
2022/08/19 14:00:12;;;;;;;4.40;1.98;;;;;;;;;;5094752;28;20033;-73
2022/08/19 14:02:39;;;;;;;3.20;1.60;;;;;;;;;;5093766;28;20024;-74
2022/08/19 14:05:06;;;;;;;5.53;2.15;;;;;;;;;;5094899;28;20024;-74
2022/08/19 14:07:32;;;;;;;3.65;1.90;;;;;;;;;;5094551;28;20108;-74
2022/08/19 14:09:58;;;;;;;4.70;2.45;;;;;;;;;;5094868;28;20035;-73
2022/08/19 14:12:25;;;;;;;4.40;2.17;;;;;;;;;;5093072;28;20021;-73
2022/08/19 14:14:51;;;;;;;4.80;2.33;;;;;;;;;;5095299;28;20057;-74
2022/08/19 14:17:17;;;;;;;4.30;1.90;;;;;;;;;;5094767;28;20024;-72
2022/08/19 14:19:44;;;;;;;5.85;2.40;;;;;;;;;;5094280;28;20110;-74
2022/08/19 14:22:10;;;;;;;5.22;2.10;;;;;;;;;;5094513;28;20026;-74
2022/08/19 14:24:39;;;;;;;5.07;2.33;;;;;;;;;;5094555;28;20384;-74
2022/08/19 14:27:05;;;;;;;6.63;2.20;;;;;;;;;;5094116;28;20103;-73
2022/08/19 14:29:32;;;;;;;5.07;2.40;;;;;;;;;;5094419;28;20421;-73
2022/08/19 14:31:58;;;;;;;4.03;1.90;;;;;;;;;;5093986;28;20044;-73
2022/08/19 14:34:25;;;;;;;4.20;1.90;;;;;;;;;;5093644;28;20032;-73
2022/08/19 14:36:52;;;;;;;6.45;2.08;;;;;;;;;;5093944;28;20047;-73
2022/08/19 14:39:18;;;;;;;3.80;2.00;;;;;;;;;;5094023;28;20035;-73
2022/08/19 14:41:45;;;;;;;4.43;2.05;;;;;;;;;;5093835;28;20024;-73
2022/08/19 14:44:14;;;;;;;3.47;1.90;;;;;;;;;;5094149;28;20099;-73
2022/08/19 14:46:40;;;;;;;4.38;2.10;;;;;;;;;;5093958;28;20380;-73
2022/08/19 14:49:07;;;;;;;5.07;2.63;;;;;;;;;;5092782;28;20056;-73
2022/08/19 14:51:33;;;;;;;5.03;2.10;;;;;;;;;;5094309;28;20024;-73
2022/08/19 14:54:00;;;;;;;3.47;1.92;;;;;;;;;;5094117;28;20020;-74
2022/08/19 14:56:28;;;;;;;6.32;2.30;;;;;;;;;;5093702;28;20031;-74
2022/08/19 14:58:54;;;;;;;5.32;1.92;;;;;;;;;;5093905;28;20113;-73
2022/08/19 15:01:22;;;;;;;3.85;2.05;;;;;;;;;;5093955;28;20460;-73
2022/08/19 15:03:48;;;;;;;4.43;1.75;;;;;;;;;;5092343;28;20028;-74
2022/08/19 15:06:15;;;;;;;5.25;3.38;;;;;;;;;;5093405;28;20020;-74
2022/08/19 15:08:42;;;;;;;3.10;1.77;;;;;;;;;;5093407;28;20024;-74
2022/08/19 15:11:12;;;;;;;5.47;1.88;;;;;;;;;;5093842;28;20496;-74
2022/08/19 15:13:39;;;;;;;4.53;1.95;;;;;;;;;;5093745;28;20496;-74
2022/08/19 15:16:05;;;;;;;5.15;2.30;;;;;;;;;;5092060;28;20046;-74
2022/08/19 15:18:32;;;;;;;5.00;1.92;;;;;;;;;;5092352;28;20040;-74
2022/08/19 15:20:59;;;;;;;5.38;1.60;;;;;;;;;;5093706;28;20028;-73
2022/08/19 15:23:25;;;;;;;5.40;2.00;;;;;;;;;;5093429;28;20529;-73
2022/08/19 15:25:54;;;;;;;5.38;2.17;;;;;;;;;;5093647;28;20024;-73
2022/08/19 15:28:21;;;;;;;4.15;2.00;;;;;;;;;;5093593;28;20044;-73
2022/08/19 15:30:48;;;;;;;4.80;2.08;;;;;;;;;;5093045;28;20027;-73
2022/08/19 15:33:14;;;;;;;5.85;2.75;;;;;;;;;;5092196;28;20024;-73
2022/08/19 15:35:41;;;;;;;5.60;2.17;;;;;;;;;;5093463;28;20024;-73
2022/08/19 15:38:08;;;;;;;3.45;1.70;;;;;;;;;;5092727;28;20068;-73
2022/08/19 15:40:34;;;;;;;4.70;2.10;;;;;;;;;;5093443;28;20492;-73
2022/08/19 15:43:01;;;;;;;6.22;1.92;;;;;;;;;;5093408;28;20089;-73
2022/08/19 15:45:31;;;;;;;3.88;2.05;;;;;;;;;;5092995;28;20095;-73
2022/08/19 15:47:58;;;;;;;5.13;2.43;;;;;;;;;;5093743;28;20103;-72
2022/08/19 15:50:24;;;;;;;5.90;2.25;;;;;;;;;;5093322;28;20058;-73
2022/08/19 15:52:52;;;;;;;3.92;1.73;;;;;;;;;;5092950;28;20434;-72
2022/08/19 15:55:28;;;;;;;5.70;1.65;;;;;;;;;;5093360;28;20020;-74
2022/08/19 16:06:27;;;;;;;4.95;2.03;;;;;;;;;;5097160;28;20039;-72
2022/08/19 16:08:58;;;;;;;4.85;2.45;;;;;;;;;;5097466;28;20038;-73
2022/08/19 16:11:29;;;;;;;5.53;2.38;;;;;;;;;;5095834;28;20077;-73
2022/08/19 16:13:56;;;;;;;3.30;1.83;;;;;;;;;;5095458;28;20063;-72
2022/08/19 16:16:28;;;;;;;4.57;1.85;;;;;;;;;;5097006;28;20021;-72
2022/08/19 16:18:54;;;;;;;;;;;;;;;;;;5097690;28;20491;-73